Time;durP1;ratioP1;P1;durP2;ratioP2;P2;SDS_P1;SDS_P2;PMS_P1;PMS_P2;Temp;Humidity;BMP_temperature;BMP_pressure;BME280_temperature;BME280_humidity;BME280_pressure;Samples;Min_cycle;Max_cycle;Signal;HPM_P1;HPM_P2
2021/12/26 00:00:33;;;;;;;7.30;4.07;;;;;;;-7.27;93.88;101504.72;4806837;29;20254;-86
2021/12/26 00:02:59;;;;;;;7.78;4.70;;;;;;;-7.30;93.55;101502.00;4838283;29;20225;-87
2021/12/26 00:05:25;;;;;;;5.70;4.40;;;;;;;-7.29;94.11;101493.34;4808000;29;20175;-88
2021/12/26 00:07:51;;;;;;;5.68;4.47;;;;;;;-7.26;93.43;101501.28;4839106;29;20191;-89
2021/12/26 00:10:20;;;;;;;6.82;4.80;;;;;;;-7.26;93.67;101496.06;4823554;29;20541;-86
2021/12/26 00:12:46;;;;;;;9.18;4.45;;;;;;;-7.38;93.97;101495.53;4807794;29;20191;-89
2021/12/26 00:15:12;;;;;;;7.28;4.93;;;;;;;-7.55;93.68;101505.19;4807435;29;20191;-86
2021/12/26 00:17:37;;;;;;;6.38;4.63;;;;;;;-7.52;93.98;101495.81;4807309;29;20294;-87
2021/12/26 00:20:07;;;;;;;8.40;4.53;;;;;;;-7.40;94.47;101512.81;4838007;29;20207;-86
2021/12/26 00:22:33;;;;;;;6.60;4.45;;;;;;;-7.44;93.96;101501.34;4823528;29;20216;-86
2021/12/26 00:24:58;;;;;;;6.45;4.18;;;;;;;-7.34;93.85;101497.47;4822169;29;20184;-86
2021/12/26 00:27:24;;;;;;;10.13;4.28;;;;;;;-7.31;93.88;101497.59;4815954;29;20273;-86
2021/12/26 00:29:49;;;;;;;6.68;3.92;;;;;;;-7.26;93.70;101493.47;4811498;29;20726;-86
2021/12/26 00:32:16;;;;;;;7.82;4.72;;;;;;;-7.16;93.01;101497.41;4824484;29;20202;-86
2021/12/26 00:34:42;;;;;;;5.15;4.30;;;;;;;-7.10;92.61;101493.34;4809136;29;20279;-87
2021/12/26 00:37:08;;;;;;;7.07;4.38;;;;;;;-7.06;92.55;101489.19;4814230;29;20183;-86
2021/12/26 00:39:35;;;;;;;6.13;3.75;;;;;;;-7.07;92.33;101489.97;4833610;29;20214;-86
2021/12/26 00:42:02;;;;;;;8.02;4.40;;;;;;;-6.99;92.02;101499.03;4812117;29;20272;-87
2021/12/26 00:44:27;;;;;;;4.97;4.10;;;;;;;-7.02;91.96;101498.88;4822229;29;20641;-88
2021/12/26 00:46:53;;;;;;;7.57;4.30;;;;;;;-7.13;91.82;101503.59;4822098;29;20287;-87
2021/12/26 00:49:23;;;;;;;7.00;4.55;;;;;;;-6.95;92.44;101513.06;4809501;29;20580;-85
2021/12/26 00:51:50;;;;;;;9.70;4.03;;;;;;;-6.93;92.37;101499.31;4824164;29;20171;-87
2021/12/26 00:54:15;;;;;;;8.77;4.22;;;;;;;-6.75;92.33;101509.63;4824237;29;20198;-86
2021/12/26 00:56:44;;;;;;;4.88;4.00;;;;;;;-6.73;92.12;101507.97;4822846;29;20179;-86
2021/12/26 00:59:09;;;;;;;5.88;4.13;;;;;;;-6.72;91.60;101496.72;4822359;29;20191;-86
2021/12/26 01:01:35;;;;;;;8.25;3.75;;;;;;;-6.65;91.57;101506.59;4815129;29;20223;-84
2021/12/26 01:04:01;;;;;;;4.90;3.83;;;;;;;-6.68;91.34;101502.94;4829383;29;20186;-86
2021/12/26 01:06:28;;;;;;;6.35;3.60;;;;;;;-6.66;91.34;101515.22;4807000;29;20392;-86
2021/12/26 01:08:54;;;;;;;5.47;3.95;;;;;;;-6.72;90.99;101509.72;4821607;29;20621;-86
2021/12/26 01:11:39;;;;;;;7.03;4.07;;;;;;;-6.82;90.96;101506.66;4806339;29;20199;-86
2021/12/26 01:14:11;;;;;;;7.97;4.18;;;;;;;-6.87;90.63;101514.28;4809362;29;20202;-86
2021/12/26 01:17:12;;;;;;;4.80;4.10;;;;;;;-6.86;91.22;101505.66;4810683;29;20259;-86
2021/12/26 01:19:52;;;;;;;7.10;4.22;;;;;;;-6.85;90.81;101510.03;4808522;29;20233;-86
2021/12/26 01:22:19;;;;;;;10.00;4.10;;;;;;;-6.98;90.86;101510.31;4826461;29;20225;-85
2021/12/26 01:24:55;;;;;;;9.05;4.78;;;;;;;-6.93;91.38;101509.72;4822146;29;20178;-87
2021/12/26 01:27:27;;;;;;;5.90;4.53;;;;;;;-6.94;91.50;101520.94;4831886;29;20187;-87
2021/12/26 01:29:53;;;;;;;8.57;4.43;;;;;;;-6.89;92.05;101524.66;4821395;29;20734;-86
2021/12/26 01:32:20;;;;;;;7.30;4.70;;;;;;;-6.81;92.25;101530.19;4823595;29;20244;-86
2021/12/26 01:35:04;;;;;;;5.18;4.05;;;;;;;-6.81;92.09;101522.38;4810641;29;20333;-87
2021/12/26 01:37:45;;;;;;;7.72;4.15;;;;;;;-6.89;92.37;101527.25;4834036;29;20179;-85
2021/12/26 01:40:35;;;;;;;5.95;4.57;;;;;;;-7.00;92.71;101522.38;4835167;29;20294;-85
2021/12/26 01:43:08;;;;;;;6.93;4.68;;;;;;;-7.01;92.44;101521.50;4829031;29;20294;-86
2021/12/26 01:45:42;;;;;;;6.88;4.00;;;;;;;-6.98;92.71;101526.84;4806107;29;20214;-86
2021/12/26 01:48:08;;;;;;;8.57;4.28;;;;;;;-7.02;92.82;101521.44;4808945;29;20203;-88
2021/12/26 01:50:42;;;;;;;7.75;4.40;;;;;;;-7.04;92.65;101534.38;4819676;29;20188;-86
2021/12/26 01:53:09;;;;;;;7.22;4.40;;;;;;;-7.12;92.74;101526.25;4825491;29;20183;-85
2021/12/26 01:58:17;;;;;;;7.38;4.80;;;;;;;-7.08;93.41;101509.06;4820738;29;20176;-86
2021/12/26 02:00:46;;;;;;;9.25;4.88;;;;;;;-7.09;93.64;101515.06;4821366;29;20312;-86
2021/12/26 02:03:12;;;;;;;9.05;4.82;;;;;;;-7.12;94.46;101513.22;4806320;29;20267;-86
2021/12/26 02:05:38;;;;;;;6.63;4.88;;;;;;;-7.13;94.50;101506.22;4806395;29;20861;-86
2021/12/26 02:08:07;;;;;;;10.60;4.88;;;;;;;-7.16;95.32;101506.09;4821286;29;20227;-86
2021/12/26 02:10:33;;;;;;;6.18;4.65;;;;;;;-7.14;95.48;101512.25;4806273;29;20234;-86
2021/12/26 02:12:59;;;;;;;5.35;4.68;;;;;;;-7.13;95.48;101506.22;4806997;29;20224;-86
2021/12/26 02:15:24;;;;;;;6.60;5.05;;;;;;;-7.14;95.08;101504.44;4823446;29;20187;-86
2021/12/26 02:18:07;;;;;;;6.57;5.13;;;;;;;-7.14;95.49;101509.66;4809474;29;20179;-86
2021/12/26 02:23:35;;;;;;;10.13;5.30;;;;;;;-7.28;95.38;101500.31;4823154;29;20191;-86
2021/12/26 02:28:42;;;;;;;8.27;5.32;;;;;;;-7.39;96.32;101493.75;4824493;29;20339;-86
2021/12/26 02:31:13;;;;;;;8.70;5.43;;;;;;;-7.31;96.49;101505.41;4810491;29;20238;-86
2021/12/26 02:33:39;;;;;;;7.93;4.97;;;;;;;-7.33;96.42;101507.03;4809853;29;20202;-86
2021/12/26 02:36:05;;;;;;;8.40;5.80;;;;;;;-7.40;96.44;101502.41;4824610;29;20270;-86
2021/12/26 02:38:32;;;;;;;8.23;5.60;;;;;;;-7.44;97.16;101492.66;4826699;29;20172;-86
2021/12/26 02:40:58;;;;;;;8.77;5.43;;;;;;;-7.58;96.94;101489.44;4824292;29;20287;-86
2021/12/26 02:43:27;;;;;;;8.88;5.65;;;;;;;-7.73;96.31;101490.50;4809398;29;20207;-86
2021/12/26 02:45:53;;;;;;;12.00;6.15;;;;;;;-7.62;97.27;101485.81;4815247;29;20191;-85
2021/12/26 02:48:19;;;;;;;8.25;5.65;;;;;;;-7.58;97.39;101495.53;4814877;29;20180;-86
2021/12/26 02:50:56;;;;;;;8.85;6.05;;;;;;;-7.70;96.78;101498.44;4825047;29;20206;-87
2021/12/26 02:53:25;;;;;;;10.38;6.72;;;;;;;-7.67;96.85;101505.53;4842275;29;20218;-87
2021/12/26 02:55:52;;;;;;;11.02;6.45;;;;;;;-7.73;97.25;101495.72;4845891;29;20178;-87
2021/12/26 02:58:18;;;;;;;10.43;5.82;;;;;;;-7.72;97.03;101497.50;4844918;29;20275;-85
2021/12/26 03:00:58;;;;;;;7.90;6.13;;;;;;;-7.81;97.37;101507.47;4813069;29;20223;-86
2021/12/26 03:03:24;;;;;;;8.73;5.75;;;;;;;-7.82;97.01;101507.41;4853262;29;20225;-86
2021/12/26 03:06:03;;;;;;;10.00;6.18;;;;;;;-7.82;96.97;101508.28;4853076;29;20182;-86
2021/12/26 03:08:30;;;;;;;6.93;5.78;;;;;;;-7.81;96.94;101498.78;4843824;29;20224;-86
2021/12/26 03:10:56;;;;;;;9.00;6.07;;;;;;;-7.79;97.17;101505.81;4845608;29;20290;-85
2021/12/26 03:13:22;;;;;;;8.15;6.00;;;;;;;-7.75;97.62;101507.75;4861789;29;20181;-86
2021/12/26 03:15:48;;;;;;;10.77;6.35;;;;;;;-7.87;97.05;101500.28;4847113;29;20193;-86
2021/12/26 03:18:14;;;;;;;8.50;5.72;;;;;;;-7.98;96.90;101490.16;4858183;29;20182;-86
2021/12/26 03:20:43;;;;;;;10.68;5.78;;;;;;;-7.92;97.12;101503.47;4856920;29;20261;-86
2021/12/26 03:23:11;;;;;;;10.30;5.75;;;;;;;-7.97;97.11;101490.25;4837085;29;20607;-85
2021/12/26 03:25:41;;;;;;;6.97;5.60;;;;;;;-8.23;96.81;101485.50;4851147;29;20229;-85
2021/12/26 03:28:08;;;;;;;11.05;6.10;;;;;;;-8.35;96.84;101491.00;4849964;29;20282;-87
2021/12/26 03:30:34;;;;;;;8.43;5.60;;;;;;;-8.42;97.53;101505.44;4819927;29;20210;-84
2021/12/26 03:33:03;;;;;;;10.88;6.80;;;;;;;-8.39;97.76;101499.47;4846855;29;20175;-85
2021/12/26 03:35:30;;;;;;;11.85;6.80;;;;;;;-8.26;98.25;101494.06;4815795;29;20174;-85
2021/12/26 03:37:57;;;;;;;8.65;6.32;;;;;;;-8.32;97.81;101496.34;4825944;29;20721;-85
2021/12/26 03:40:42;;;;;;;8.32;6.32;;;;;;;-8.39;98.89;101497.75;4845137;29;20302;-85
2021/12/26 03:43:09;;;;;;;11.43;6.35;;;;;;;-8.26;98.74;101491.47;4813182;29;20211;-85
2021/12/26 03:45:36;;;;;;;9.63;7.35;;;;;;;-8.24;98.26;101489.84;4814038;29;20175;-86
2021/12/26 03:48:02;;;;;;;8.68;6.63;;;;;;;-8.36;98.05;101497.91;4828752;29;20341;-86
2021/12/26 03:50:30;;;;;;;7.55;6.53;;;;;;;-8.37;98.48;101503.06;4818715;29;20223;-85
2021/12/26 03:53:01;;;;;;;8.65;6.05;;;;;;;-8.33;98.39;101507.56;4831773;29;20182;-86
2021/12/26 03:55:29;;;;;;;9.25;7.15;;;;;;;-8.32;98.15;101507.63;4837304;29;20171;-85
2021/12/26 03:57:54;;;;;;;8.50;6.15;;;;;;;-8.25;98.22;101502.75;4838257;29;20790;-86
2021/12/26 04:00:23;;;;;;;10.98;6.00;;;;;;;-8.24;98.70;101509.72;4837971;29;20891;-86
2021/12/26 04:02:49;;;;;;;8.88;6.30;;;;;;;-8.46;98.08;101513.00;4843971;29;20207;-85
2021/12/26 04:05:17;;;;;;;8.75;5.80;;;;;;;-8.61;97.95;101513.16;4811617;29;20261;-85
2021/12/26 04:07:43;;;;;;;8.70;6.13;;;;;;;-8.70;97.88;101510.97;4825883;29;20163;-83
2021/12/26 04:10:11;;;;;;;9.32;5.93;;;;;;;-8.73;98.23;101524.69;4813973;29;20195;-86
2021/12/26 04:12:37;;;;;;;8.70;5.70;;;;;;;-8.64;98.08;101512.97;4823921;29;20186;-85
2021/12/26 04:15:12;;;;;;;9.25;5.78;;;;;;;-8.79;98.49;101519.19;4825964;29;20231;-86
2021/12/26 04:17:38;;;;;;;10.18;6.22;;;;;;;-8.86;98.23;101511.88;4840657;29;20258;-88
2021/12/26 04:20:06;;;;;;;8.68;6.07;;;;;;;-8.90;98.47;101520.31;4826695;29;20284;-88
2021/12/26 04:22:35;;;;;;;11.23;6.35;;;;;;;-8.87;98.25;101504.91;4836837;29;20289;-85
2021/12/26 04:25:03;;;;;;;10.07;5.95;;;;;;;-8.79;98.49;101501.03;4830942;29;20189;-85
2021/12/26 04:27:29;;;;;;;8.55;6.25;;;;;;;-8.67;98.46;101503.31;4810366;29;20190;-85
2021/12/26 04:29:54;;;;;;;9.00;6.03;;;;;;;-8.65;98.46;101498.22;4827784;29;20194;-86
2021/12/26 04:32:22;;;;;;;7.57;5.53;;;;;;;-8.78;98.44;101497.59;4843997;29;20271;-86
2021/12/26 04:34:48;;;;;;;6.97;5.18;;;;;;;-8.71;97.95;101491.88;4810362;29;20266;-86
2021/12/26 04:37:15;;;;;;;8.95;6.07;;;;;;;-8.65;97.79;101493.03;4825664;29;20649;-87
2021/12/26 04:39:40;;;;;;;8.25;5.75;;;;;;;-8.84;97.39;101496.38;4811193;29;20234;-85
2021/12/26 04:42:07;;;;;;;7.32;5.90;;;;;;;-8.83;97.77;101498.16;4812452;29;20577;-85
2021/12/26 04:45:12;;;;;;;7.53;5.30;;;;;;;-8.79;97.10;101488.03;4803832;29;20260;-85
2021/12/26 04:48:02;;;;;;;8.98;5.90;;;;;;;-8.98;96.98;101496.56;4802583;29;20705;-85
2021/12/26 04:50:31;;;;;;;7.15;5.57;;;;;;;-8.91;96.72;101505.56;4804468;29;20211;-86
2021/12/26 04:52:59;;;;;;;10.63;6.07;;;;;;;-8.95;97.22;101501.03;4836096;29;20680;-85
2021/12/26 04:55:27;;;;;;;8.93;5.90;;;;;;;-9.04;97.35;101500.56;4839757;29;20208;-85
2021/12/26 04:57:52;;;;;;;8.90;6.13;;;;;;;-9.09;97.44;101499.41;4845383;29;20178;-85
2021/12/26 05:00:22;;;;;;;8.55;5.90;;;;;;;-9.16;97.39;101499.13;4828151;29;20197;-85
2021/12/26 05:02:51;;;;;;;12.80;5.50;;;;;;;-9.11;97.57;101488.97;4843894;29;20210;-86
2021/12/26 05:05:17;;;;;;;9.70;6.07;;;;;;;-9.12;97.47;101498.47;4843737;29;20758;-85
2021/12/26 05:07:44;;;;;;;8.88;6.05;;;;;;;-9.04;97.64;101503.16;4844520;29;20190;-86
2021/12/26 05:10:12;;;;;;;11.35;6.80;;;;;;;-9.00;97.42;101505.09;4833822;29;20209;-85
2021/12/26 05:12:38;;;;;;;8.30;6.72;;;;;;;-9.06;97.81;101502.19;4859245;29;20255;-86
2021/12/26 05:15:05;;;;;;;8.27;6.50;;;;;;;-8.99;97.02;101499.97;4867587;29;20205;-85
2021/12/26 05:17:38;;;;;;;13.43;6.77;;;;;;;-9.12;96.51;101505.34;4831112;29;20550;-86
2021/12/26 05:20:05;;;;;;;8.10;6.60;;;;;;;-9.15;96.60;101495.69;4862471;29;20194;-85
2021/12/26 05:22:31;;;;;;;9.30;6.38;;;;;;;-9.23;96.65;101509.97;4832150;29;20206;-86
2021/12/26 05:24:56;;;;;;;11.17;6.37;;;;;;;-9.35;96.64;101496.38;4830663;29;20348;-86
2021/12/26 05:27:24;;;;;;;9.63;6.38;;;;;;;-9.34;97.04;101503.31;4829362;29;20186;-86
2021/12/26 05:29:49;;;;;;;9.90;6.05;;;;;;;-9.41;97.11;101483.94;4844932;29;20305;-85
2021/12/26 05:32:15;;;;;;;10.20;6.88;;;;;;;-9.40;97.47;101487.44;4845452;29;20186;-85
2021/12/26 05:34:41;;;;;;;8.30;6.30;;;;;;;-9.36;97.41;101497.16;4832846;29;20544;-85
2021/12/26 05:37:07;;;;;;;10.53;6.80;;;;;;;-9.29;97.58;101490.59;4829529;29;20178;-86
2021/12/26 05:39:37;;;;;;;9.60;7.10;;;;;;;-9.22;97.77;101496.19;4860363;29;20173;-86
2021/12/26 05:42:04;;;;;;;9.17;7.33;;;;;;;-9.26;97.10;101488.19;4830032;29;20206;-86
2021/12/26 05:44:31;;;;;;;9.77;7.25;;;;;;;-9.19;97.29;101485.97;4829330;29;20234;-85
2021/12/26 05:46:59;;;;;;;9.87;7.10;;;;;;;-9.27;96.77;101491.56;4844034;29;20193;-86
2021/12/26 05:49:29;;;;;;;9.77;7.10;;;;;;;-9.28;96.92;101493.28;4844362;29;20170;-85
2021/12/26 05:52:08;;;;;;;9.67;7.23;;;;;;;-9.36;96.61;101481.59;4856093;29;20463;-87
2021/12/26 05:54:41;;;;;;;13.90;7.40;;;;;;;-9.62;96.06;101475.94;4852391;29;20206;-86
2021/12/26 05:57:07;;;;;;;9.37;6.70;;;;;;;-9.59;96.40;101478.69;4828572;29;20216;-86
2021/12/26 05:59:33;;;;;;;10.23;6.97;;;;;;;-9.59;96.32;101486.47;4844937;29;20194;-86
2021/12/26 06:02:00;;;;;;;11.07;7.07;;;;;;;-9.47;95.77;101483.63;4847488;29;20351;-84
2021/12/26 06:04:26;;;;;;;10.10;6.60;;;;;;;-9.76;95.39;101475.19;4848623;29;20186;-86
2021/12/26 06:06:52;;;;;;;12.30;6.95;;;;;;;-9.76;96.01;101470.00;4844374;29;20265;-86
2021/12/26 06:09:18;;;;;;;9.13;6.73;;;;;;;-9.61;96.50;101476.81;4852055;29;20174;-86
2021/12/26 06:11:44;;;;;;;10.23;7.33;;;;;;;-9.77;96.04;101469.94;4845106;29;20311;-86
2021/12/26 06:14:11;;;;;;;11.67;7.60;;;;;;;-9.64;95.41;101474.97;4848485;29;20264;-86
2021/12/26 06:16:37;;;;;;;10.10;7.33;;;;;;;-9.63;95.84;101470.66;4829588;29;20208;-84
2021/12/26 06:19:09;;;;;;;10.43;7.13;;;;;;;-9.76;94.87;101471.69;4844594;29;20193;-86
2021/12/26 06:21:58;;;;;;;11.00;7.20;;;;;;;-9.69;95.30;101475.50;4844981;29;20214;-86
2021/12/26 06:24:37;;;;;;;11.17;7.27;;;;;;;-9.78;95.57;101475.91;4840080;29;20269;-86
2021/12/26 06:27:21;;;;;;;10.57;7.10;;;;;;;-9.89;95.24;101480.50;4854844;29;20249;-85
2021/12/26 06:30:18;;;;;;;10.87;7.27;;;;;;;-9.90;95.41;101483.00;4847874;29;20213;-85
2021/12/26 06:33:07;;;;;;;9.63;7.07;;;;;;;-9.77;96.00;101481.19;4837899;29;20249;-85
2021/12/26 06:35:51;;;;;;;8.23;6.47;;;;;;;-9.72;95.44;101493.50;4847264;29;20254;-85
2021/12/26 06:38:36;;;;;;;10.03;7.07;;;;;;;-9.75;95.40;101499.41;4852419;29;20246;-88
2021/12/26 06:41:20;;;;;;;11.10;6.60;;;;;;;-9.74;95.50;101493.41;4821654;29;20788;-86
2021/12/26 06:44:11;;;;;;;11.97;6.63;;;;;;;-9.94;95.06;101484.56;4860724;29;20242;-85
2021/12/26 06:46:48;;;;;;;13.80;6.83;;;;;;;-9.94;94.99;101492.34;4832373;29;20597;-85
2021/12/26 06:49:34;;;;;;;10.10;7.03;;;;;;;-9.97;94.91;101476.59;4848634;29;20245;-88
2021/12/26 06:52:00;;;;;;;8.20;6.53;;;;;;;-9.97;94.68;101485.28;4852229;29;20174;-86
2021/12/26 06:54:29;;;;;;;9.60;6.63;;;;;;;-10.12;95.10;101493.88;4834031;29;20186;-88
2021/12/26 06:56:55;;;;;;;9.10;7.70;;;;;;;-10.20;95.17;101491.78;4833374;29;20237;-86
2021/12/26 06:59:20;;;;;;;13.17;8.40;;;;;;;-10.27;94.88;101489.66;4829642;29;20214;-86
2021/12/26 07:01:46;;;;;;;10.77;8.00;;;;;;;-10.30;95.03;101484.31;4846182;29;20575;-86
2021/12/26 07:04:14;;;;;;;8.97;6.60;;;;;;;-10.21;95.32;101492.59;4833041;29;20763;-86
2021/12/26 07:06:40;;;;;;;12.07;8.07;;;;;;;-10.26;94.76;101490.53;4821236;29;20183;-86
2021/12/26 07:09:12;;;;;;;9.27;7.43;;;;;;;-10.12;95.00;101484.44;4827361;29;20175;-86
2021/12/26 07:11:38;;;;;;;8.47;7.07;;;;;;;-10.20;95.04;101493.47;4813776;29;20206;-86
2021/12/26 07:14:13;;;;;;;9.37;7.07;;;;;;;-10.41;94.45;101478.53;4828531;29;20699;-86
2021/12/26 07:16:41;;;;;;;11.70;7.33;;;;;;;-10.36;95.44;101481.41;4812853;29;20187;-86
2021/12/26 07:19:07;;;;;;;7.90;6.20;;;;;;;-10.38;95.16;101490.78;4827451;29;20194;-86
2021/12/26 07:21:37;;;;;;;7.77;6.43;;;;;;;-10.35;95.54;101483.16;4815867;29;20198;-86
2021/12/26 07:24:07;;;;;;;11.47;7.60;;;;;;;-10.23;95.82;101486.44;4830807;29;20185;-87
2021/12/26 07:26:36;;;;;;;15.10;7.37;;;;;;;-10.13;95.84;101490.41;4834135;29;20215;-86
2021/12/26 07:29:07;;;;;;;9.70;7.43;;;;;;;-10.29;94.84;101483.53;4827741;29;20236;-84
2021/12/26 07:31:39;;;;;;;9.37;6.83;;;;;;;-10.29;95.39;101496.47;4826882;29;20289;-85
2021/12/26 07:34:06;;;;;;;8.27;6.77;;;;;;;-10.24;95.67;101500.16;4829785;29;20187;-86
2021/12/26 07:36:34;;;;;;;9.17;6.50;;;;;;;-10.18;95.08;101499.63;4842420;29;20591;-88
2021/12/26 07:39:23;;;;;;;10.90;6.73;;;;;;;-10.29;95.14;101503.38;4818435;29;20881;-86
2021/12/26 07:41:49;;;;;;;10.80;6.77;;;;;;;-10.16;94.85;101509.28;4817932;29;20214;-89
2021/12/26 07:44:39;;;;;;;8.40;7.10;;;;;;;-10.31;94.61;101504.97;4847884;29;20239;-86
2021/12/26 07:47:39;;;;;;;12.23;6.63;;;;;;;-10.31;94.84;101507.56;4836133;29;20694;-86
2021/12/26 07:50:06;;;;;;;10.60;6.43;;;;;;;-10.49;94.76;101510.88;4847916;29;20223;-86
2021/12/26 07:52:52;;;;;;;9.43;6.27;;;;;;;-10.46;95.07;101518.81;4850885;29;20173;-87
2021/12/26 07:55:36;;;;;;;9.73;6.57;;;;;;;-10.41;95.41;101511.31;4862864;29;20254;-87
2021/12/26 07:58:37;;;;;;;9.63;6.30;;;;;;;-10.33;95.26;101514.34;4841716;29;20184;-86
2021/12/26 08:01:21;;;;;;;11.63;6.73;;;;;;;-10.20;95.90;101525.44;4845791;29;20236;-86
2021/12/26 08:04:02;;;;;;;9.17;7.00;;;;;;;-10.25;95.19;101528.59;4846870;29;20186;-86
2021/12/26 08:06:46;;;;;;;13.80;7.13;;;;;;;-10.26;95.20;101522.50;4863394;29;20193;-86
2021/12/26 08:09:12;;;;;;;10.40;6.80;;;;;;;-10.28;95.26;101525.81;4847243;29;20179;-86
2021/12/26 08:11:37;;;;;;;10.23;7.30;;;;;;;-10.22;95.48;101518.41;4830774;29;20723;-86
2021/12/26 08:14:03;;;;;;;9.83;7.10;;;;;;;-10.07;95.17;101527.03;4847004;29;20178;-87
2021/12/26 08:16:29;;;;;;;9.33;7.50;;;;;;;-10.00;95.63;101528.28;4862787;29;20276;-84
2021/12/26 08:18:55;;;;;;;9.73;7.00;;;;;;;-9.87;95.53;101537.63;4852057;29;20187;-86
2021/12/26 08:21:24;;;;;;;9.60;7.10;;;;;;;-9.90;94.91;101540.03;4848281;29;20812;-86
2021/12/26 08:29:04;;;;;;;10.27;6.70;;;;;;;-9.80;94.39;101547.53;4856421;29;20313;-85
2021/12/26 08:31:30;;;;;;;12.77;6.83;;;;;;;-9.71;94.45;101544.53;4869300;29;20222;-85
2021/12/26 08:33:56;;;;;;;11.33;6.87;;;;;;;-9.84;94.07;101525.75;4871170;29;20189;-85
2021/12/26 08:36:22;;;;;;;8.33;7.20;;;;;;;-9.80;93.74;101534.56;4879205;29;20874;-85
2021/12/26 08:38:47;;;;;;;11.13;6.87;;;;;;;-9.77;93.56;101538.22;4866840;29;20216;-86
2021/12/26 08:41:15;;;;;;;10.33;6.90;;;;;;;-9.69;93.82;101538.63;4864146;29;20721;-86
2021/12/26 08:43:43;;;;;;;11.17;7.13;;;;;;;-9.56;94.05;101542.78;4865114;29;20338;-86
2021/12/26 08:46:10;;;;;;;10.30;6.60;;;;;;;-9.52;93.71;101547.34;4864712;29;20211;-85
2021/12/26 08:48:35;;;;;;;8.73;6.77;;;;;;;-9.43;93.89;101541.75;4855786;29;20246;-85
2021/12/26 08:51:01;;;;;;;12.30;6.90;;;;;;;-9.41;93.71;101550.50;4863617;29;20202;-85
2021/12/26 08:53:27;;;;;;;11.97;7.33;;;;;;;-9.31;93.32;101542.44;4863518;29;20208;-85
2021/12/26 08:55:59;;;;;;;11.27;6.77;;;;;;;-9.13;93.74;101543.38;4853066;29;20226;-86
2021/12/26 08:58:25;;;;;;;11.07;7.30;;;;;;;-9.17;92.96;101549.22;4859806;29;20607;-85
2021/12/26 09:00:51;;;;;;;8.80;6.73;;;;;;;-9.04;92.89;101542.97;4862479;29;20198;-86
2021/12/26 09:03:20;;;;;;;7.83;6.43;;;;;;;-8.89;92.67;101548.09;4870829;29;20229;-85
2021/12/26 09:05:45;;;;;;;9.53;7.23;;;;;;;-8.87;92.87;101546.47;4858073;29;20279;-86
2021/12/26 09:08:13;;;;;;;9.40;7.40;;;;;;;-8.76;93.12;101553.09;4860148;29;20183;-87
2021/12/26 09:10:40;;;;;;;9.53;7.07;;;;;;;-8.62;92.73;101550.31;4877600;29;20207;-86
2021/12/26 09:13:07;;;;;;;8.40;7.37;;;;;;;-8.47;92.33;101561.47;4877674;29;20170;-86
2021/12/26 09:15:34;;;;;;;10.37;7.40;;;;;;;-8.43;92.22;101550.44;4871790;29;20235;-87
2021/12/26 09:18:04;;;;;;;8.77;6.82;;;;;;;-8.45;92.07;101548.56;4859549;29;20194;-86
2021/12/26 09:20:30;;;;;;;8.32;7.00;;;;;;;-8.48;91.98;101554.50;4859354;29;20207;-85
2021/12/26 09:22:56;;;;;;;8.55;6.70;;;;;;;-8.47;91.95;101553.69;4858155;29;20215;-86
2021/12/26 09:25:21;;;;;;;13.52;6.72;;;;;;;-8.43;92.07;101557.34;4872244;29;20206;-85
2021/12/26 09:27:47;;;;;;;9.52;7.05;;;;;;;-8.44;92.12;101547.75;4874633;29;20282;-86
2021/12/26 09:30:13;;;;;;;10.02;7.13;;;;;;;-8.44;92.11;101548.63;4844358;29;20227;-86
2021/12/26 09:32:39;;;;;;;9.80;7.00;;;;;;;-8.30;92.09;101532.00;4841873;29;20186;-85
2021/12/26 09:35:06;;;;;;;9.10;6.67;;;;;;;-8.03;92.16;101544.56;4875673;29;20187;-86
2021/12/26 09:37:32;;;;;;;9.65;6.63;;;;;;;-7.96;92.10;101544.06;4870713;29;20190;-87
2021/12/26 09:39:57;;;;;;;9.35;7.10;;;;;;;-7.77;91.74;101547.53;4840452;29;20209;-86
2021/12/26 09:42:24;;;;;;;8.73;6.78;;;;;;;-7.61;91.86;101550.00;4840496;29;20198;-85
2021/12/26 09:44:51;;;;;;;9.13;6.70;;;;;;;-7.42;91.87;101549.16;4857032;29;20202;-84
2021/12/26 09:47:17;;;;;;;11.43;6.40;;;;;;;-7.15;92.01;101549.56;4843006;29;20543;-85
2021/12/26 09:49:43;;;;;;;11.05;6.47;;;;;;;-6.85;91.99;101549.09;4857041;29;20182;-86
2021/12/26 09:52:09;;;;;;;14.13;7.22;;;;;;;-6.93;91.25;101550.47;4847092;29;20565;-85
2021/12/26 09:54:35;;;;;;;8.98;6.90;;;;;;;-6.86;91.00;101548.22;4861675;29;20586;-85
2021/12/26 09:57:01;;;;;;;11.35;6.25;;;;;;;-6.54;90.80;101546.09;4842129;29;20201;-85
2021/12/26 09:59:30;;;;;;;8.45;6.32;;;;;;;-6.47;90.08;101545.56;4842615;29;20194;-85
2021/12/26 10:02:08;;;;;;;10.18;5.75;;;;;;;-6.35;89.27;101537.34;4844154;29;20203;-85
2021/12/26 10:04:34;;;;;;;7.20;5.55;;;;;;;-6.37;88.60;101544.22;4858585;29;20273;-86
2021/12/26 10:07:15;;;;;;;8.45;5.13;;;;;;;-6.26;88.34;101545.56;4842748;29;20210;-85
2021/12/26 10:09:43;;;;;;;9.05;5.75;;;;;;;-6.32;87.42;101547.94;4858876;29;20195;-85
2021/12/26 10:12:13;;;;;;;7.65;4.72;;;;;;;-6.12;87.06;101538.31;4842094;29;20311;-86
2021/12/26 10:14:39;;;;;;;6.57;5.28;;;;;;;-5.87;85.98;101545.38;4856719;29;20179;-87
2021/12/26 10:17:26;;;;;;;4.78;4.10;;;;;;;-5.75;82.43;101531.94;4844170;29;20199;-85
2021/12/26 10:20:09;;;;;;;7.07;4.05;;;;;;;-5.64;79.81;101535.84;4841407;29;20206;-86
2021/12/26 10:22:36;;;;;;;4.82;3.08;;;;;;;-5.51;75.99;101533.69;4873233;29;20203;-87
2021/12/26 10:25:09;;;;;;;4.78;3.50;;;;;;;-5.25;73.49;101526.84;4841950;29;20292;-86
2021/12/26 10:27:35;;;;;;;5.90;3.25;;;;;;;-5.11;69.98;101527.38;4851687;29;20202;-85
2021/12/26 10:30:04;;;;;;;3.75;3.15;;;;;;;-5.17;69.23;101510.63;4866641;29;20442;-86
2021/12/26 10:32:33;;;;;;;5.40;3.20;;;;;;;-4.98;68.84;101506.97;4839960;29;20190;-86
2021/12/26 10:35:08;;;;;;;4.38;3.17;;;;;;;-4.94;68.27;101500.13;4854876;29;20640;-86
2021/12/26 10:37:41;;;;;;;6.32;3.20;;;;;;;-4.93;65.51;101507.13;4854532;29;20278;-85
2021/12/26 10:40:11;;;;;;;3.08;2.42;;;;;;;-4.82;62.64;101499.66;4839900;29;20207;-87
2021/12/26 10:42:40;;;;;;;3.63;2.60;;;;;;;-4.80;61.42;101488.44;4840495;29;20285;-86
2021/12/26 10:45:09;;;;;;;3.80;2.85;;;;;;;-4.71;60.65;101494.81;4842151;29;20261;-86
2021/12/26 10:47:40;;;;;;;5.90;2.42;;;;;;;-4.70;59.94;101481.81;4844424;29;20187;-86
2021/12/26 10:50:11;;;;;;;2.80;2.25;;;;;;;-4.63;59.06;101485.50;4843630;29;20701;-87
2021/12/26 10:52:52;;;;;;;3.67;2.20;;;;;;;-4.61;57.77;101483.84;4864109;29;20960;-87
2021/12/26 10:55:20;;;;;;;3.08;2.13;;;;;;;-4.50;55.87;101481.56;4844458;29;20644;-85
2021/12/26 10:57:50;;;;;;;2.65;2.20;;;;;;;-4.40;55.13;101486.28;4842640;29;20175;-86
2021/12/26 11:00:19;;;;;;;2.47;1.85;;;;;;;-4.41;54.87;101479.28;4845283;29;20202;-86
2021/12/26 11:02:48;;;;;;;3.15;2.30;;;;;;;-4.36;54.15;101486.41;4844347;29;20271;-87
2021/12/26 11:05:23;;;;;;;3.58;2.42;;;;;;;-4.34;54.98;101489.09;4859208;29;20190;-86
2021/12/26 11:07:56;;;;;;;4.43;2.50;;;;;;;-4.27;54.89;101479.72;4843535;29;20186;-87
2021/12/26 11:10:23;;;;;;;3.40;2.40;;;;;;;-4.26;56.34;101484.13;4860828;29;20199;-86
2021/12/26 11:12:52;;;;;;;3.08;2.40;;;;;;;-4.29;57.00;101465.69;4865127;29;20167;-86
2021/12/26 11:15:21;;;;;;;4.82;2.55;;;;;;;-4.31;58.77;101472.59;4849711;29;20195;-86
2021/12/26 11:17:58;;;;;;;5.75;3.38;;;;;;;-4.22;57.54;101472.91;4846490;29;20266;-85
2021/12/26 11:20:33;;;;;;;5.63;3.00;;;;;;;-4.18;58.64;101478.28;4843626;29;20220;-87
2021/12/26 11:23:00;;;;;;;5.47;3.58;;;;;;;-4.05;57.98;101465.59;4857293;29;20271;-88
2021/12/26 11:25:26;;;;;;;6.68;3.55;;;;;;;-4.04;59.03;101470.88;4859393;29;20544;-89
2021/12/26 11:27:52;;;;;;;6.75;4.55;;;;;;;-3.97;59.60;101472.84;4859324;29;20179;-86
2021/12/26 11:30:19;;;;;;;8.20;3.97;;;;;;;-3.89;60.58;101473.09;4841769;29;20218;-86
2021/12/26 11:32:45;;;;;;;5.97;3.47;;;;;;;-3.82;61.29;101482.03;4842081;29;20210;-86
2021/12/26 11:35:13;;;;;;;8.30;4.70;;;;;;;-3.86;62.12;101488.00;4865998;29;20203;-86
2021/12/26 11:37:40;;;;;;;4.45;3.75;;;;;;;-3.81;62.72;101492.53;4846267;29;20179;-87
2021/12/26 11:40:46;;;;;;;7.28;4.30;;;;;;;-3.70;65.06;101489.34;4861120;29;20206;-88
2021/12/26 11:44:10;;;;;;;6.47;4.40;;;;;;;-3.68;66.09;101480.69;4839679;29;20229;-86
2021/12/26 11:47:27;;;;;;;6.82;5.15;;;;;;;-3.78;65.84;101481.28;4841946;29;20332;-86
2021/12/26 11:50:25;;;;;;;11.23;4.40;;;;;;;-3.77;65.30;101481.31;4854746;29;20226;-87